sensor_id;sensor_type;location;lat;lon;timestamp;temperature;humidity
44833;DHT22;30569;51.252;9.830;2022-10-31T00:01:58;10.50;99.90
44833;DHT22;30569;51.252;9.830;2022-10-31T00:04:23;10.40;99.90
44833;DHT22;30569;51.252;9.830;2022-10-31T00:06:49;10.40;99.90
44833;DHT22;30569;51.252;9.830;2022-10-31T00:09:15;10.50;99.90
44833;DHT22;30569;51.252;9.830;2022-10-31T00:11:40;10.50;99.90
44833;DHT22;30569;51.252;9.830;2022-10-31T00:14:06;10.20;99.90
44833;DHT22;30569;51.252;9.830;2022-10-31T00:16:32;10.10;99.90
44833;DHT22;30569;51.252;9.830;2022-10-31T00:19:01;10.20;99.90
44833;DHT22;30569;51.252;9.830;2022-10-31T00:21:28;10.30;99.90
44833;DHT22;30569;51.252;9.830;2022-10-31T00:23:54;10.40;99.90
44833;DHT22;30569;51.252;9.830;2022-10-31T00:26:20;10.30;99.90
44833;DHT22;30569;51.252;9.830;2022-10-31T00:28:47;10.40;99.90
44833;DHT22;30569;51.252;9.830;2022-10-31T00:31:13;10.50;99.90
44833;DHT22;30569;51.252;9.830;2022-10-31T00:33:40;10.50;99.90
44833;DHT22;30569;51.252;9.830;2022-10-31T00:36:07;10.40;99.90
44833;DHT22;30569;51.252;9.830;2022-10-31T00:38:33;10.50;99.90
44833;DHT22;30569;51.252;9.830;2022-10-31T00:40:58;10.40;99.90
44833;DHT22;30569;51.252;9.830;2022-10-31T00:43:24;10.40;99.90
44833;DHT22;30569;51.252;9.830;2022-10-31T00:45:50;10.30;99.90
44833;DHT22;30569;51.252;9.830;2022-10-31T00:48:15;10.40;99.90
44833;DHT22;30569;51.252;9.830;2022-10-31T00:50:41;10.40;99.90
44833;DHT22;30569;51.252;9.830;2022-10-31T00:55:33;10.50;99.90
44833;DHT22;30569;51.252;9.830;2022-10-31T00:57:59;10.50;99.90
44833;DHT22;30569;51.252;9.830;2022-10-31T01:00:25;10.50;99.90
44833;DHT22;30569;51.252;9.830;2022-10-31T01:02:51;10.40;99.90
44833;DHT22;30569;51.252;9.830;2022-10-31T01:05:16;10.30;99.90
44833;DHT22;30569;51.252;9.830;2022-10-31T01:07:42;10.30;99.90
44833;DHT22;30569;51.252;9.830;2022-10-31T01:10:09;10.30;99.90
44833;DHT22;30569;51.252;9.830;2022-10-31T01:12:44;10.40;99.90
44833;DHT22;30569;51.252;9.830;2022-10-31T01:15:11;10.30;99.90
44833;DHT22;30569;51.252;9.830;2022-10-31T01:17:38;10.30;99.90
44833;DHT22;30569;51.252;9.830;2022-10-31T01:20:05;10.00;99.90
44833;DHT22;30569;51.252;9.830;2022-10-31T01:22:32;9.50;99.90
44833;DHT22;30569;51.252;9.830;2022-10-31T01:24:57;9.80;99.90
44833;DHT22;30569;51.252;9.830;2022-10-31T01:27:23;9.90;99.90
44833;DHT22;30569;51.252;9.830;2022-10-31T01:29:48;10.00;99.90
44833;DHT22;30569;51.252;9.830;2022-10-31T01:32:14;9.90;99.90
44833;DHT22;30569;51.252;9.830;2022-10-31T01:34:39;9.90;99.90
44833;DHT22;30569;51.252;9.830;2022-10-31T01:37:05;9.80;99.90
44833;DHT22;30569;51.252;9.830;2022-10-31T01:39:30;9.90;99.90
44833;DHT22;30569;51.252;9.830;2022-10-31T01:41:56;9.80;99.90
44833;DHT22;30569;51.252;9.830;2022-10-31T01:49:34;9.30;99.90
44833;DHT22;30569;51.252;9.830;2022-10-31T01:52:02;9.40;99.90
44833;DHT22;30569;51.252;9.830;2022-10-31T01:54:33;9.50;99.90
44833;DHT22;30569;51.252;9.830;2022-10-31T01:57:03;9.40;99.90
44833;DHT22;30569;51.252;9.830;2022-10-31T01:59:30;9.50;99.90
44833;DHT22;30569;51.252;9.830;2022-10-31T02:01:57;9.50;99.90
44833;DHT22;30569;51.252;9.830;2022-10-31T02:04:24;9.00;99.90
44833;DHT22;30569;51.252;9.830;2022-10-31T02:06:57;8.90;99.90
44833;DHT22;30569;51.252;9.830;2022-10-31T02:09:25;9.20;99.90
44833;DHT22;30569;51.252;9.830;2022-10-31T02:11:52;9.20;99.90
44833;DHT22;30569;51.252;9.830;2022-10-31T02:14:19;9.50;99.90
44833;DHT22;30569;51.252;9.830;2022-10-31T02:16:46;9.50;99.90
44833;DHT22;30569;51.252;9.830;2022-10-31T02:19:16;9.40;99.90
44833;DHT22;30569;51.252;9.830;2022-10-31T02:22:01;8.90;99.90
44833;DHT22;30569;51.252;9.830;2022-10-31T02:30:20;9.40;99.90
44833;DHT22;30569;51.252;9.830;2022-10-31T02:38:34;9.50;99.90
44833;DHT22;30569;51.252;9.830;2022-10-31T02:47:13;9.20;99.90
44833;DHT22;30569;51.252;9.830;2022-10-31T02:49:46;9.00;99.90
44833;DHT22;30569;51.252;9.830;2022-10-31T02:52:28;9.10;99.90
44833;DHT22;30569;51.252;9.830;2022-10-31T02:54:54;9.30;99.90
44833;DHT22;30569;51.252;9.830;2022-10-31T02:57:30;9.40;99.90
44833;DHT22;30569;51.252;9.830;2022-10-31T03:00:00;9.40;99.90
44833;DHT22;30569;51.252;9.830;2022-10-31T03:05:38;9.30;99.90
44833;DHT22;30569;51.252;9.830;2022-10-31T03:08:08;9.30;99.90
44833;DHT22;30569;51.252;9.830;2022-10-31T03:16:45;9.50;99.90
44833;DHT22;30569;51.252;9.830;2022-10-31T03:19:23;9.50;99.90
44833;DHT22;30569;51.252;9.830;2022-10-31T03:21:53;9.40;99.90
44833;DHT22;30569;51.252;9.830;2022-10-31T03:24:21;9.40;99.90
44833;DHT22;30569;51.252;9.830;2022-10-31T03:26:51;9.40;99.90
44833;DHT22;30569;51.252;9.830;2022-10-31T03:29:22;9.40;99.90
44833;DHT22;30569;51.252;9.830;2022-10-31T03:31:55;9.40;99.90
44833;DHT22;30569;51.252;9.830;2022-10-31T03:34:22;9.10;99.90
44833;DHT22;30569;51.252;9.830;2022-10-31T03:36:51;9.10;99.90
44833;DHT22;30569;51.252;9.830;2022-10-31T03:39:19;9.20;99.90
44833;DHT22;30569;51.252;9.830;2022-10-31T03:41:49;9.40;99.90
44833;DHT22;30569;51.252;9.830;2022-10-31T03:44:20;9.10;99.90
44833;DHT22;30569;51.252;9.830;2022-10-31T03:46:47;8.90;99.90
44833;DHT22;30569;51.252;9.830;2022-10-31T03:49:13;8.90;99.90
44833;DHT22;30569;51.252;9.830;2022-10-31T03:51:46;9.00;99.90
44833;DHT22;30569;51.252;9.830;2022-10-31T03:57:22;8.70;99.90
44833;DHT22;30569;51.252;9.830;2022-10-31T04:00:04;8.90;99.90
44833;DHT22;30569;51.252;9.830;2022-10-31T04:02:32;8.90;99.90
44833;DHT22;30569;51.252;9.830;2022-10-31T04:04:59;8.60;99.90
44833;DHT22;30569;51.252;9.830;2022-10-31T04:07:28;8.70;99.90
44833;DHT22;30569;51.252;9.830;2022-10-31T04:09:56;8.80;99.90
44833;DHT22;30569;51.252;9.830;2022-10-31T04:12:24;8.90;99.90
44833;DHT22;30569;51.252;9.830;2022-10-31T04:14:50;8.90;99.90
44833;DHT22;30569;51.252;9.830;2022-10-31T04:17:19;8.70;99.90
44833;DHT22;30569;51.252;9.830;2022-10-31T04:19:45;7.60;99.90
44833;DHT22;30569;51.252;9.830;2022-10-31T04:22:10;7.60;99.90
44833;DHT22;30569;51.252;9.830;2022-10-31T04:24:38;8.20;99.90
44833;DHT22;30569;51.252;9.830;2022-10-31T04:27:04;8.20;99.90
44833;DHT22;30569;51.252;9.830;2022-10-31T04:29:30;8.50;99.90
44833;DHT22;30569;51.252;9.830;2022-10-31T04:31:55;8.80;99.90
44833;DHT22;30569;51.252;9.830;2022-10-31T04:34:21;8.90;99.90
44833;DHT22;30569;51.252;9.830;2022-10-31T04:36:46;8.80;99.90
44833;DHT22;30569;51.252;9.830;2022-10-31T04:39:12;8.80;99.90
44833;DHT22;30569;51.252;9.830;2022-10-31T04:41:38;8.80;99.90
44833;DHT22;30569;51.252;9.830;2022-10-31T04:44:03;8.70;99.90
44833;DHT22;30569;51.252;9.830;2022-10-31T04:46:29;8.60;99.90
44833;DHT22;30569;51.252;9.830;2022-10-31T04:48:54;8.70;99.90
44833;DHT22;30569;51.252;9.830;2022-10-31T04:51:20;8.80;99.90
44833;DHT22;30569;51.252;9.830;2022-10-31T04:53:45;8.90;99.90
44833;DHT22;30569;51.252;9.830;2022-10-31T04:56:11;8.80;99.90
44833;DHT22;30569;51.252;9.830;2022-10-31T04:58:36;8.90;99.90
44833;DHT22;30569;51.252;9.830;2022-10-31T05:01:02;8.40;99.90
44833;DHT22;30569;51.252;9.830;2022-10-31T05:03:27;8.50;99.90
44833;DHT22;30569;51.252;9.830;2022-10-31T05:05:53;8.50;99.90
44833;DHT22;30569;51.252;9.830;2022-10-31T05:08:18;8.60;99.90
44833;DHT22;30569;51.252;9.830;2022-10-31T05:10:44;8.40;99.90
44833;DHT22;30569;51.252;9.830;2022-10-31T05:13:09;8.50;99.90
44833;DHT22;30569;51.252;9.830;2022-10-31T05:15:35;8.60;99.90
44833;DHT22;30569;51.252;9.830;2022-10-31T05:18:01;8.60;99.90
44833;DHT22;30569;51.252;9.830;2022-10-31T05:20:28;8.40;99.90
44833;DHT22;30569;51.252;9.830;2022-10-31T05:22:55;8.30;99.90
44833;DHT22;30569;51.252;9.830;2022-10-31T05:25:23;8.00;99.90
44833;DHT22;30569;51.252;9.830;2022-10-31T05:27:50;8.10;99.90
44833;DHT22;30569;51.252;9.830;2022-10-31T05:30:18;8.20;99.90
44833;DHT22;30569;51.252;9.830;2022-10-31T05:32:46;8.30;99.90
44833;DHT22;30569;51.252;9.830;2022-10-31T05:35:18;8.20;99.90
44833;DHT22;30569;51.252;9.830;2022-10-31T05:37:44;8.20;99.90
44833;DHT22;30569;51.252;9.830;2022-10-31T05:40:11;8.30;99.90
44833;DHT22;30569;51.252;9.830;2022-10-31T05:42:41;8.20;99.90
44833;DHT22;30569;51.252;9.830;2022-10-31T05:45:09;8.40;99.90
44833;DHT22;30569;51.252;9.830;2022-10-31T05:47:35;8.40;99.90
44833;DHT22;30569;51.252;9.830;2022-10-31T05:50:01;8.60;99.90
44833;DHT22;30569;51.252;9.830;2022-10-31T05:52:26;8.60;99.90
44833;DHT22;30569;51.252;9.830;2022-10-31T05:54:52;8.50;99.90
44833;DHT22;30569;51.252;9.830;2022-10-31T05:57:17;8.50;99.90
44833;DHT22;30569;51.252;9.830;2022-10-31T05:59:43;8.60;99.90
44833;DHT22;30569;51.252;9.830;2022-10-31T06:02:09;8.50;99.90
44833;DHT22;30569;51.252;9.830;2022-10-31T06:07:00;7.80;99.90
44833;DHT22;30569;51.252;9.830;2022-10-31T06:09:26;7.70;99.90
44833;DHT22;30569;51.252;9.830;2022-10-31T06:11:51;7.90;99.90
44833;DHT22;30569;51.252;9.830;2022-10-31T06:14:17;8.10;99.90
44833;DHT22;30569;51.252;9.830;2022-10-31T06:16:42;8.10;99.90
44833;DHT22;30569;51.252;9.830;2022-10-31T06:19:08;8.10;99.90
44833;DHT22;30569;51.252;9.830;2022-10-31T06:21:33;8.20;99.90
44833;DHT22;30569;51.252;9.830;2022-10-31T06:23:59;8.30;99.90
44833;DHT22;30569;51.252;9.830;2022-10-31T06:26:24;8.30;99.90
44833;DHT22;30569;51.252;9.830;2022-10-31T06:28:50;8.40;99.90
44833;DHT22;30569;51.252;9.830;2022-10-31T06:31:16;8.30;99.90
44833;DHT22;30569;51.252;9.830;2022-10-31T06:33:42;8.40;99.90
44833;DHT22;30569;51.252;9.830;2022-10-31T06:36:08;7.70;99.90
44833;DHT22;30569;51.252;9.830;2022-10-31T06:38:34;7.90;99.90
44833;DHT22;30569;51.252;9.830;2022-10-31T06:41:04;8.10;99.90
44833;DHT22;30569;51.252;9.830;2022-10-31T06:43:30;8.30;99.90
44833;DHT22;30569;51.252;9.830;2022-10-31T06:45:56;8.50;99.90
44833;DHT22;30569;51.252;9.830;2022-10-31T06:48:22;8.40;99.90
44833;DHT22;30569;51.252;9.830;2022-10-31T06:50:47;11.30;99.90
44833;DHT22;30569;51.252;9.830;2022-10-31T06:55:40;8.60;99.90
44833;DHT22;30569;51.252;9.830;2022-10-31T06:58:06;8.50;99.90
44833;DHT22;30569;51.252;9.830;2022-10-31T07:00:32;8.50;99.90
44833;DHT22;30569;51.252;9.830;2022-10-31T07:02:59;8.60;99.90
44833;DHT22;30569;51.252;9.830;2022-10-31T07:05:26;8.90;99.90
44833;DHT22;30569;51.252;9.830;2022-10-31T07:07:56;8.90;99.90
44833;DHT22;30569;51.252;9.830;2022-10-31T07:10:23;9.20;99.90
44833;DHT22;30569;51.252;9.830;2022-10-31T07:12:54;9.30;99.90
44833;DHT22;30569;51.252;9.830;2022-10-31T07:15:20;9.40;99.90
44833;DHT22;30569;51.252;9.830;2022-10-31T07:17:45;9.50;99.90
44833;DHT22;30569;51.252;9.830;2022-10-31T07:20:11;9.50;99.90
44833;DHT22;30569;51.252;9.830;2022-10-31T07:25:03;9.70;99.90
44833;DHT22;30569;51.252;9.830;2022-10-31T07:27:38;9.60;99.90
44833;DHT22;30569;51.252;9.830;2022-10-31T07:30:05;9.60;99.90
44833;DHT22;30569;51.252;9.830;2022-10-31T07:32:57;9.80;99.90
44833;DHT22;30569;51.252;9.830;2022-10-31T07:35:24;10.10;99.90
44833;DHT22;30569;51.252;9.830;2022-10-31T07:40:17;10.40;99.90
44833;DHT22;30569;51.252;9.830;2022-10-31T07:42:48;10.40;99.90
44833;DHT22;30569;51.252;9.830;2022-10-31T07:45:16;10.70;99.90
44833;DHT22;30569;51.252;9.830;2022-10-31T07:47:44;10.80;99.90
44833;DHT22;30569;51.252;9.830;2022-10-31T07:50:13;10.50;99.90
44833;DHT22;30569;51.252;9.830;2022-10-31T07:55:06;10.80;99.90
44833;DHT22;30569;51.252;9.830;2022-10-31T07:57:31;10.90;99.90
44833;DHT22;30569;51.252;9.830;2022-10-31T08:02:23;11.30;99.90
44833;DHT22;30569;51.252;9.830;2022-10-31T08:09:41;11.80;99.90
44833;DHT22;30569;51.252;9.830;2022-10-31T08:12:06;12.00;99.90
44833;DHT22;30569;51.252;9.830;2022-10-31T08:14:32;12.30;99.90
44833;DHT22;30569;51.252;9.830;2022-10-31T08:16:57;12.30;99.90
44833;DHT22;30569;51.252;9.830;2022-10-31T08:21:53;12.60;99.90
44833;DHT22;30569;51.252;9.830;2022-10-31T08:24:20;12.40;99.90
44833;DHT22;30569;51.252;9.830;2022-10-31T08:26:46;12.30;99.90
44833;DHT22;30569;51.252;9.830;2022-10-31T08:29:12;12.70;99.90
44833;DHT22;30569;51.252;9.830;2022-10-31T08:34:04;13.20;99.90
44833;DHT22;30569;51.252;9.830;2022-10-31T08:36:29;13.10;99.90
44833;DHT22;30569;51.252;9.830;2022-10-31T08:41:21;13.30;99.90
44833;DHT22;30569;51.252;9.830;2022-10-31T08:43:47;13.40;99.90
44833;DHT22;30569;51.252;9.830;2022-10-31T08:48:39;13.50;99.90
44833;DHT22;30569;51.252;9.830;2022-10-31T08:51:05;13.60;99.90
44833;DHT22;30569;51.252;9.830;2022-10-31T08:55:57;13.70;99.90
44833;DHT22;30569;51.252;9.830;2022-10-31T08:58:24;14.20;99.90
44833;DHT22;30569;51.252;9.830;2022-10-31T09:00:52;13.90;99.90
44833;DHT22;30569;51.252;9.830;2022-10-31T09:03:26;14.00;99.90
44833;DHT22;30569;51.252;9.830;2022-10-31T09:05:55;14.10;99.90
44833;DHT22;30569;51.252;9.830;2022-10-31T09:08:21;14.40;99.90
44833;DHT22;30569;51.252;9.830;2022-10-31T09:10:47;14.50;99.90
44833;DHT22;30569;51.252;9.830;2022-10-31T09:13:18;14.60;99.90
44833;DHT22;30569;51.252;9.830;2022-10-31T09:15:46;14.60;99.90
44833;DHT22;30569;51.252;9.830;2022-10-31T09:18:13;14.30;99.90
44833;DHT22;30569;51.252;9.830;2022-10-31T09:20:40;14.80;99.90
44833;DHT22;30569;51.252;9.830;2022-10-31T09:23:16;15.40;99.90
44833;DHT22;30569;51.252;9.830;2022-10-31T09:25:42;15.90;99.90
44833;DHT22;30569;51.252;9.830;2022-10-31T09:28:11;16.20;99.90
44833;DHT22;30569;51.252;9.830;2022-10-31T09:30:36;16.60;99.90
44833;DHT22;30569;51.252;9.830;2022-10-31T09:33:09;17.00;99.90
44833;DHT22;30569;51.252;9.830;2022-10-31T09:35:35;17.10;99.90
44833;DHT22;30569;51.252;9.830;2022-10-31T09:38:03;17.10;99.90
44833;DHT22;30569;51.252;9.830;2022-10-31T09:40:47;17.20;99.90
44833;DHT22;30569;51.252;9.830;2022-10-31T09:43:28;17.50;99.90
44833;DHT22;30569;51.252;9.830;2022-10-31T09:46:12;17.50;99.90
44833;DHT22;30569;51.252;9.830;2022-10-31T09:51:11;17.30;99.90
44833;DHT22;30569;51.252;9.830;2022-10-31T09:56:15;18.10;99.90
44833;DHT22;30569;51.252;9.830;2022-10-31T09:58:44;19.20;99.90
44833;DHT22;30569;51.252;9.830;2022-10-31T10:06:47;20.30;99.90
44833;DHT22;30569;51.252;9.830;2022-10-31T10:09:14;20.10;99.90
44833;DHT22;30569;51.252;9.830;2022-10-31T10:18:04;19.60;99.90
44833;DHT22;30569;51.252;9.830;2022-10-31T10:20:56;19.40;99.90
44833;DHT22;30569;51.252;9.830;2022-10-31T10:23:53;18.90;99.90
44833;DHT22;30569;51.252;9.830;2022-10-31T10:26:22;17.80;99.90
44833;DHT22;30569;51.252;9.830;2022-10-31T10:28:56;17.50;99.90
44833;DHT22;30569;51.252;9.830;2022-10-31T10:31:37;17.90;99.90
44833;DHT22;30569;51.252;9.830;2022-10-31T10:34:08;17.40;99.90
44833;DHT22;30569;51.252;9.830;2022-10-31T10:36:44;17.40;99.90
44833;DHT22;30569;51.252;9.830;2022-10-31T10:39:18;17.80;99.90
44833;DHT22;30569;51.252;9.830;2022-10-31T10:41:47;18.10;99.90
44833;DHT22;30569;51.252;9.830;2022-10-31T10:44:38;18.60;99.90
44833;DHT22;30569;51.252;9.830;2022-10-31T10:47:25;18.60;99.90
44833;DHT22;30569;51.252;9.830;2022-10-31T10:50:20;18.60;99.90
44833;DHT22;30569;51.252;9.830;2022-10-31T10:52:49;18.60;99.90
44833;DHT22;30569;51.252;9.830;2022-10-31T10:58:20;19.00;99.90
44833;DHT22;30569;51.252;9.830;2022-10-31T11:00:47;19.30;99.90
44833;DHT22;30569;51.252;9.830;2022-10-31T11:03:17;19.20;99.90
44833;DHT22;30569;51.252;9.830;2022-10-31T11:05:56;19.40;99.90
44833;DHT22;30569;51.252;9.830;2022-10-31T11:08:28;19.50;99.90
44833;DHT22;30569;51.252;9.830;2022-10-31T11:11:01;19.50;99.90
44833;DHT22;30569;51.252;9.830;2022-10-31T11:13:27;19.30;99.90
44833;DHT22;30569;51.252;9.830;2022-10-31T11:16:00;19.20;99.90
44833;DHT22;30569;51.252;9.830;2022-10-31T11:18:30;19.40;99.90
44833;DHT22;30569;51.252;9.830;2022-10-31T11:20:59;19.50;99.90
44833;DHT22;30569;51.252;9.830;2022-10-31T11:23:27;19.70;99.90
44833;DHT22;30569;51.252;9.830;2022-10-31T11:26:03;19.30;99.90
44833;DHT22;30569;51.252;9.830;2022-10-31T11:28:31;19.60;99.90
44833;DHT22;30569;51.252;9.830;2022-10-31T11:31:07;21.50;99.90
44833;DHT22;30569;51.252;9.830;2022-10-31T11:33:35;20.20;99.90
44833;DHT22;30569;51.252;9.830;2022-10-31T11:36:14;20.10;99.90
44833;DHT22;30569;51.252;9.830;2022-10-31T11:38:42;19.80;99.90
44833;DHT22;30569;51.252;9.830;2022-10-31T11:41:14;19.40;99.90
44833;DHT22;30569;51.252;9.830;2022-10-31T11:43:51;19.60;99.90
44833;DHT22;30569;51.252;9.830;2022-10-31T11:46:30;19.30;99.90
44833;DHT22;30569;51.252;9.830;2022-10-31T11:48:57;20.60;99.90
44833;DHT22;30569;51.252;9.830;2022-10-31T11:51:33;19.10;99.90
44833;DHT22;30569;51.252;9.830;2022-10-31T11:54:01;19.30;99.90
44833;DHT22;30569;51.252;9.830;2022-10-31T11:56:38;20.40;99.90
44833;DHT22;30569;51.252;9.830;2022-10-31T11:59:06;19.10;99.90
44833;DHT22;30569;51.252;9.830;2022-10-31T12:01:40;19.40;99.90
44833;DHT22;30569;51.252;9.830;2022-10-31T12:04:12;19.50;99.90
44833;DHT22;30569;51.252;9.830;2022-10-31T12:06:40;19.50;99.90
44833;DHT22;30569;51.252;9.830;2022-10-31T12:09:22;20.60;99.90
44833;DHT22;30569;51.252;9.830;2022-10-31T12:17:13;19.80;99.90
44833;DHT22;30569;51.252;9.830;2022-10-31T12:31:24;19.60;99.90
44833;DHT22;30569;51.252;9.830;2022-10-31T12:42:49;20.30;99.90
44833;DHT22;30569;51.252;9.830;2022-10-31T12:45:51;20.50;99.90
44833;DHT22;30569;51.252;9.830;2022-10-31T12:59:29;20.70;99.90
44833;DHT22;30569;51.252;9.830;2022-10-31T13:05:05;20.10;99.90
44833;DHT22;30569;51.252;9.830;2022-10-31T13:07:41;20.10;99.90
44833;DHT22;30569;51.252;9.830;2022-10-31T13:10:22;20.30;99.90
44833;DHT22;30569;51.252;9.830;2022-10-31T13:12:55;20.40;99.90
44833;DHT22;30569;51.252;9.830;2022-10-31T13:15:25;20.30;99.90
44833;DHT22;30569;51.252;9.830;2022-10-31T13:17:58;20.90;99.90
44833;DHT22;30569;51.252;9.830;2022-10-31T13:20:32;20.20;99.90
44833;DHT22;30569;51.252;9.830;2022-10-31T13:23:09;20.10;99.90
44833;DHT22;30569;51.252;9.830;2022-10-31T13:25:42;19.80;99.90
44833;DHT22;30569;51.252;9.830;2022-10-31T13:30:48;19.70;99.90
44833;DHT22;30569;51.252;9.830;2022-10-31T13:33:16;19.30;99.90
44833;DHT22;30569;51.252;9.830;2022-10-31T13:38:32;19.90;99.90
44833;DHT22;30569;51.252;9.830;2022-10-31T13:41:11;18.80;99.90
44833;DHT22;30569;51.252;9.830;2022-10-31T13:43:59;18.40;99.90
44833;DHT22;30569;51.252;9.830;2022-10-31T13:48:57;18.40;99.90
44833;DHT22;30569;51.252;9.830;2022-10-31T13:51:31;20.30;99.90
44833;DHT22;30569;51.252;9.830;2022-10-31T13:54:01;17.70;99.90
44833;DHT22;30569;51.252;9.830;2022-10-31T13:56:33;17.70;99.90
44833;DHT22;30569;51.252;9.830;2022-10-31T14:04:27;17.30;99.90
44833;DHT22;30569;51.252;9.830;2022-10-31T14:07:10;17.30;99.90
44833;DHT22;30569;51.252;9.830;2022-10-31T14:12:12;17.10;99.90
44833;DHT22;30569;51.252;9.830;2022-10-31T14:14:49;17.10;99.90
44833;DHT22;30569;51.252;9.830;2022-10-31T14:17:22;17.00;99.90
44833;DHT22;30569;51.252;9.830;2022-10-31T14:19:59;17.00;99.90
44833;DHT22;30569;51.252;9.830;2022-10-31T14:22:30;17.00;99.90
44833;DHT22;30569;51.252;9.830;2022-10-31T14:24:58;17.10;99.90
44833;DHT22;30569;51.252;9.830;2022-10-31T14:32:24;17.00;99.90
44833;DHT22;30569;51.252;9.830;2022-10-31T14:37:37;17.00;99.90
44833;DHT22;30569;51.252;9.830;2022-10-31T14:46:18;16.80;99.90
44833;DHT22;30569;51.252;9.830;2022-10-31T14:49:18;16.80;99.90
44833;DHT22;30569;51.252;9.830;2022-10-31T14:51:47;16.80;99.90
44833;DHT22;30569;51.252;9.830;2022-10-31T14:54:28;17.00;99.90
44833;DHT22;30569;51.252;9.830;2022-10-31T14:56:59;17.10;99.90
44833;DHT22;30569;51.252;9.830;2022-10-31T14:59:30;18.00;99.90
44833;DHT22;30569;51.252;9.830;2022-10-31T15:01:59;18.10;99.90
44833;DHT22;30569;51.252;9.830;2022-10-31T15:04:28;18.30;99.90
44833;DHT22;30569;51.252;9.830;2022-10-31T15:07:10;19.10;99.90
44833;DHT22;30569;51.252;9.830;2022-10-31T15:09:38;17.90;99.90
44833;DHT22;30569;51.252;9.830;2022-10-31T15:12:28;17.70;99.90
44833;DHT22;30569;51.252;9.830;2022-10-31T15:14:54;17.90;99.90
44833;DHT22;30569;51.252;9.830;2022-10-31T15:17:21;17.80;99.90
44833;DHT22;30569;51.252;9.830;2022-10-31T15:19:47;18.00;99.90
44833;DHT22;30569;51.252;9.830;2022-10-31T15:22:18;17.60;99.90
44833;DHT22;30569;51.252;9.830;2022-10-31T15:24:45;17.50;99.90
44833;DHT22;30569;51.252;9.830;2022-10-31T15:27:13;17.60;99.90
44833;DHT22;30569;51.252;9.830;2022-10-31T15:29:52;17.80;99.90
44833;DHT22;30569;51.252;9.830;2022-10-31T15:32:26;17.20;99.90
44833;DHT22;30569;51.252;9.830;2022-10-31T15:34:53;16.80;99.90
44833;DHT22;30569;51.252;9.830;2022-10-31T15:37:23;16.90;99.90
44833;DHT22;30569;51.252;9.830;2022-10-31T15:39:50;17.20;99.90
44833;DHT22;30569;51.252;9.830;2022-10-31T15:42:26;17.40;99.90
44833;DHT22;30569;51.252;9.830;2022-10-31T15:47:22;17.60;99.90
44833;DHT22;30569;51.252;9.830;2022-10-31T15:49:54;17.70;99.90
44833;DHT22;30569;51.252;9.830;2022-10-31T15:52:40;17.60;99.90
44833;DHT22;30569;51.252;9.830;2022-10-31T15:57:44;17.30;99.90
44833;DHT22;30569;51.252;9.830;2022-10-31T16:05:57;17.20;99.90
44833;DHT22;30569;51.252;9.830;2022-10-31T16:14:06;16.70;99.90
44833;DHT22;30569;51.252;9.830;2022-10-31T16:17:13;16.70;99.90
44833;DHT22;30569;51.252;9.830;2022-10-31T16:20:01;16.60;99.90
44833;DHT22;30569;51.252;9.830;2022-10-31T16:22:35;16.60;99.90
44833;DHT22;30569;51.252;9.830;2022-10-31T16:25:08;16.90;99.90
44833;DHT22;30569;51.252;9.830;2022-10-31T16:27:35;16.80;99.90
44833;DHT22;30569;51.252;9.830;2022-10-31T16:32:55;16.80;99.90
44833;DHT22;30569;51.252;9.830;2022-10-31T16:35:33;16.60;99.90
44833;DHT22;30569;51.252;9.830;2022-10-31T16:37:59;16.30;99.90
44833;DHT22;30569;51.252;9.830;2022-10-31T16:45:29;16.30;99.90
44833;DHT22;30569;51.252;9.830;2022-10-31T16:48:02;16.20;99.90
44833;DHT22;30569;51.252;9.830;2022-10-31T16:50:28;16.20;99.90
44833;DHT22;30569;51.252;9.830;2022-10-31T16:52:54;17.70;99.90
44833;DHT22;30569;51.252;9.830;2022-10-31T16:55:20;15.90;99.90
44833;DHT22;30569;51.252;9.830;2022-10-31T16:57:50;15.70;99.90
44833;DHT22;30569;51.252;9.830;2022-10-31T17:00:25;15.70;99.90
44833;DHT22;30569;51.252;9.830;2022-10-31T17:02:53;18.60;99.90
44833;DHT22;30569;51.252;9.830;2022-10-31T17:05:20;15.80;99.90
44833;DHT22;30569;51.252;9.830;2022-10-31T17:07:47;15.70;99.90
44833;DHT22;30569;51.252;9.830;2022-10-31T17:10:14;15.60;99.90
44833;DHT22;30569;51.252;9.830;2022-10-31T17:12:43;15.50;99.90
44833;DHT22;30569;51.252;9.830;2022-10-31T17:15:21;15.40;99.90
44833;DHT22;30569;51.252;9.830;2022-10-31T17:17:48;17.70;99.90
44833;DHT22;30569;51.252;9.830;2022-10-31T17:20:28;15.60;99.90
44833;DHT22;30569;51.252;9.830;2022-10-31T17:22:55;15.40;99.90
44833;DHT22;30569;51.252;9.830;2022-10-31T17:25:23;15.30;99.90
44833;DHT22;30569;51.252;9.830;2022-10-31T17:27:50;16.50;99.90
44833;DHT22;30569;51.252;9.830;2022-10-31T17:30:16;14.80;99.90
44833;DHT22;30569;51.252;9.830;2022-10-31T17:32:43;14.60;99.90
44833;DHT22;30569;51.252;9.830;2022-10-31T17:37:36;14.70;99.90
44833;DHT22;30569;51.252;9.830;2022-10-31T17:40:02;14.70;99.90
44833;DHT22;30569;51.252;9.830;2022-10-31T17:49:45;14.80;99.90
44833;DHT22;30569;51.252;9.830;2022-10-31T17:54:37;14.60;99.90
44833;DHT22;30569;51.252;9.830;2022-10-31T17:57:02;14.30;99.90
44833;DHT22;30569;51.252;9.830;2022-10-31T17:59:28;13.80;99.90
44833;DHT22;30569;51.252;9.830;2022-10-31T18:01:56;14.10;99.90
44833;DHT22;30569;51.252;9.830;2022-10-31T18:04:21;14.30;99.90
44833;DHT22;30569;51.252;9.830;2022-10-31T18:09:15;14.40;99.90
44833;DHT22;30569;51.252;9.830;2022-10-31T18:14:07;14.30;99.90
44833;DHT22;30569;51.252;9.830;2022-10-31T18:16:34;14.20;99.90
44833;DHT22;30569;51.252;9.830;2022-10-31T18:18:59;14.20;99.90
44833;DHT22;30569;51.252;9.830;2022-10-31T18:21:27;14.20;99.90
44833;DHT22;30569;51.252;9.830;2022-10-31T18:23:57;14.10;99.90
44833;DHT22;30569;51.252;9.830;2022-10-31T18:26:25;14.00;99.90
44833;DHT22;30569;51.252;9.830;2022-10-31T18:28:50;13.50;99.90
44833;DHT22;30569;51.252;9.830;2022-10-31T18:31:16;13.70;99.90
44833;DHT22;30569;51.252;9.830;2022-10-31T18:33:43;14.10;99.90
44833;DHT22;30569;51.252;9.830;2022-10-31T18:38:40;13.80;99.90
44833;DHT22;30569;51.252;9.830;2022-10-31T18:41:07;13.90;99.90
44833;DHT22;30569;51.252;9.830;2022-10-31T18:43:33;13.70;99.90
44833;DHT22;30569;51.252;9.830;2022-10-31T18:46:03;13.60;99.90
44833;DHT22;30569;51.252;9.830;2022-10-31T18:51:06;13.60;99.90
44833;DHT22;30569;51.252;9.830;2022-10-31T18:53:32;13.50;99.90
44833;DHT22;30569;51.252;9.830;2022-10-31T18:55:58;13.50;99.90
44833;DHT22;30569;51.252;9.830;2022-10-31T18:58:25;13.30;99.90
44833;DHT22;30569;51.252;9.830;2022-10-31T19:00:51;13.80;99.90
44833;DHT22;30569;51.252;9.830;2022-10-31T19:05:43;13.10;99.90
44833;DHT22;30569;51.252;9.830;2022-10-31T19:08:09;15.70;99.90
44833;DHT22;30569;51.252;9.830;2022-10-31T19:10:36;12.80;99.90
44833;DHT22;30569;51.252;9.830;2022-10-31T19:13:02;12.60;99.90
44833;DHT22;30569;51.252;9.830;2022-10-31T19:15:28;12.80;99.90
44833;DHT22;30569;51.252;9.830;2022-10-31T19:17:54;12.70;99.90